sensor_id;sensor_type;location;lat;lon;timestamp;P1;durP1;ratioP1;P2;durP2;ratioP2
37943;SDS011;23767;42.024;23.086;2023-02-26T00:00:12;19.05;;;9.13;;
37943;SDS011;23767;42.024;23.086;2023-02-26T00:02:42;19.35;;;8.85;;
37943;SDS011;23767;42.024;23.086;2023-02-26T00:05:12;16.60;;;8.07;;
37943;SDS011;23767;42.024;23.086;2023-02-26T00:07:38;14.30;;;7.80;;
37943;SDS011;23767;42.024;23.086;2023-02-26T00:10:05;18.52;;;7.65;;
37943;SDS011;23767;42.024;23.086;2023-02-26T00:12:31;15.30;;;7.40;;
37943;SDS011;23767;42.024;23.086;2023-02-26T00:14:58;13.02;;;7.13;;
37943;SDS011;23767;42.024;23.086;2023-02-26T00:17:36;18.20;;;7.82;;
37943;SDS011;23767;42.024;23.086;2023-02-26T00:20:04;18.25;;;7.65;;
37943;SDS011;23767;42.024;23.086;2023-02-26T00:22:31;21.17;;;7.50;;
37943;SDS011;23767;42.024;23.086;2023-02-26T00:24:57;16.88;;;7.35;;
37943;SDS011;23767;42.024;23.086;2023-02-26T00:27:23;18.65;;;7.25;;
37943;SDS011;23767;42.024;23.086;2023-02-26T00:29:49;14.63;;;7.22;;
37943;SDS011;23767;42.024;23.086;2023-02-26T00:32:15;14.52;;;7.53;;
37943;SDS011;23767;42.024;23.086;2023-02-26T00:34:45;14.75;;;7.43;;
37943;SDS011;23767;42.024;23.086;2023-02-26T00:42:09;19.92;;;7.80;;
37943;SDS011;23767;42.024;23.086;2023-02-26T00:44:35;18.60;;;7.68;;
37943;SDS011;23767;42.024;23.086;2023-02-26T00:47:09;19.35;;;7.85;;
37943;SDS011;23767;42.024;23.086;2023-02-26T00:52:17;15.75;;;7.88;;
37943;SDS011;23767;42.024;23.086;2023-02-26T00:54:45;16.15;;;7.32;;
37943;SDS011;23767;42.024;23.086;2023-02-26T00:57:11;16.33;;;7.68;;
37943;SDS011;23767;42.024;23.086;2023-02-26T00:59:37;18.10;;;7.80;;
37943;SDS011;23767;42.024;23.086;2023-02-26T01:02:03;16.85;;;7.40;;
37943;SDS011;23767;42.024;23.086;2023-02-26T01:04:29;20.88;;;7.97;;
37943;SDS011;23767;42.024;23.086;2023-02-26T01:06:55;20.48;;;7.70;;
37943;SDS011;23767;42.024;23.086;2023-02-26T01:09:26;18.17;;;7.20;;
37943;SDS011;23767;42.024;23.086;2023-02-26T01:11:52;22.10;;;7.32;;
37943;SDS011;23767;42.024;23.086;2023-02-26T01:14:19;21.88;;;7.18;;
37943;SDS011;23767;42.024;23.086;2023-02-26T01:19:19;16.65;;;7.18;;
37943;SDS011;23767;42.024;23.086;2023-02-26T01:21:48;18.77;;;6.95;;
37943;SDS011;23767;42.024;23.086;2023-02-26T01:24:16;19.02;;;7.70;;
37943;SDS011;23767;42.024;23.086;2023-02-26T01:26:44;18.83;;;7.65;;
37943;SDS011;23767;42.024;23.086;2023-02-26T01:29:11;16.55;;;7.40;;
37943;SDS011;23767;42.024;23.086;2023-02-26T01:36:48;15.38;;;7.30;;
37943;SDS011;23767;42.024;23.086;2023-02-26T01:41:47;16.80;;;8.00;;
37943;SDS011;23767;42.024;23.086;2023-02-26T01:49:39;13.50;;;6.80;;
37943;SDS011;23767;42.024;23.086;2023-02-26T01:52:06;13.93;;;7.10;;
37943;SDS011;23767;42.024;23.086;2023-02-26T01:54:36;17.30;;;7.35;;
37943;SDS011;23767;42.024;23.086;2023-02-26T01:57:13;15.98;;;6.75;;
37943;SDS011;23767;42.024;23.086;2023-02-26T01:59:41;22.42;;;7.53;;
37943;SDS011;23767;42.024;23.086;2023-02-26T02:02:09;20.75;;;7.15;;
37943;SDS011;23767;42.024;23.086;2023-02-26T02:04:36;17.83;;;7.22;;
37943;SDS011;23767;42.024;23.086;2023-02-26T02:07:03;13.90;;;7.05;;
37943;SDS011;23767;42.024;23.086;2023-02-26T02:09:29;16.70;;;7.18;;
37943;SDS011;23767;42.024;23.086;2023-02-26T02:14:37;19.33;;;7.85;;
37943;SDS011;23767;42.024;23.086;2023-02-26T02:32:57;17.52;;;7.38;;
37943;SDS011;23767;42.024;23.086;2023-02-26T02:35:36;16.98;;;8.75;;
37943;SDS011;23767;42.024;23.086;2023-02-26T02:38:08;18.55;;;7.55;;
37943;SDS011;23767;42.024;23.086;2023-02-26T02:40:35;17.15;;;7.97;;
37943;SDS011;23767;42.024;23.086;2023-02-26T02:43:03;16.75;;;8.57;;
37943;SDS011;23767;42.024;23.086;2023-02-26T02:45:34;17.10;;;7.93;;
37943;SDS011;23767;42.024;23.086;2023-02-26T02:50:52;18.88;;;8.80;;
37943;SDS011;23767;42.024;23.086;2023-02-26T02:53:21;23.98;;;9.32;;
37943;SDS011;23767;42.024;23.086;2023-02-26T02:55:56;15.18;;;8.05;;
37943;SDS011;23767;42.024;23.086;2023-02-26T02:58:30;18.80;;;7.60;;
37943;SDS011;23767;42.024;23.086;2023-02-26T03:00:59;16.20;;;8.35;;
37943;SDS011;23767;42.024;23.086;2023-02-26T03:06:09;20.25;;;8.63;;
37943;SDS011;23767;42.024;23.086;2023-02-26T03:08:37;18.25;;;7.47;;
37943;SDS011;23767;42.024;23.086;2023-02-26T03:11:05;16.67;;;7.70;;
37943;SDS011;23767;42.024;23.086;2023-02-26T03:13:31;18.30;;;8.05;;
37943;SDS011;23767;42.024;23.086;2023-02-26T03:16:05;16.63;;;7.93;;
37943;SDS011;23767;42.024;23.086;2023-02-26T03:21:05;21.42;;;9.00;;
37943;SDS011;23767;42.024;23.086;2023-02-26T03:23:34;20.17;;;8.43;;
37943;SDS011;23767;42.024;23.086;2023-02-26T03:26:09;18.63;;;8.38;;
37943;SDS011;23767;42.024;23.086;2023-02-26T03:44:24;20.63;;;8.40;;
37943;SDS011;23767;42.024;23.086;2023-02-26T03:46:53;22.85;;;8.75;;
37943;SDS011;23767;42.024;23.086;2023-02-26T03:49:22;18.17;;;8.73;;
37943;SDS011;23767;42.024;23.086;2023-02-26T03:51:50;21.45;;;8.20;;
37943;SDS011;23767;42.024;23.086;2023-02-26T03:54:19;16.98;;;8.30;;
37943;SDS011;23767;42.024;23.086;2023-02-26T03:56:47;17.17;;;7.93;;
37943;SDS011;23767;42.024;23.086;2023-02-26T03:59:13;16.92;;;8.75;;
37943;SDS011;23767;42.024;23.086;2023-02-26T04:01:54;22.90;;;8.05;;
37943;SDS011;23767;42.024;23.086;2023-02-26T04:05:22;16.73;;;8.53;;
37943;SDS011;23767;42.024;23.086;2023-02-26T04:07:17;19.05;;;7.97;;
37943;SDS011;23767;42.024;23.086;2023-02-26T04:09:45;19.75;;;8.13;;
37943;SDS011;23767;42.024;23.086;2023-02-26T04:12:11;19.38;;;8.48;;
37943;SDS011;23767;42.024;23.086;2023-02-26T04:14:37;20.42;;;7.50;;
37943;SDS011;23767;42.024;23.086;2023-02-26T04:17:03;19.77;;;8.07;;
37943;SDS011;23767;42.024;23.086;2023-02-26T04:19:30;19.00;;;8.38;;
37943;SDS011;23767;42.024;23.086;2023-02-26T04:21:56;19.25;;;8.35;;
37943;SDS011;23767;42.024;23.086;2023-02-26T04:24:22;14.93;;;8.32;;
37943;SDS011;23767;42.024;23.086;2023-02-26T04:26:48;19.52;;;7.70;;
37943;SDS011;23767;42.024;23.086;2023-02-26T04:29:14;25.67;;;8.60;;
37943;SDS011;23767;42.024;23.086;2023-02-26T04:31:40;23.45;;;8.43;;
37943;SDS011;23767;42.024;23.086;2023-02-26T04:34:06;18.25;;;7.90;;
37943;SDS011;23767;42.024;23.086;2023-02-26T04:36:32;19.25;;;8.43;;
37943;SDS011;23767;42.024;23.086;2023-02-26T04:38:58;20.92;;;7.63;;
37943;SDS011;23767;42.024;23.086;2023-02-26T04:41:24;17.55;;;7.28;;
37943;SDS011;23767;42.024;23.086;2023-02-26T04:43:50;18.15;;;7.50;;
37943;SDS011;23767;42.024;23.086;2023-02-26T04:46:16;22.15;;;8.05;;
37943;SDS011;23767;42.024;23.086;2023-02-26T04:48:42;21.20;;;7.85;;
37943;SDS011;23767;42.024;23.086;2023-02-26T04:51:08;18.45;;;7.88;;
37943;SDS011;23767;42.024;23.086;2023-02-26T04:53:34;19.90;;;8.30;;
37943;SDS011;23767;42.024;23.086;2023-02-26T04:56:00;21.08;;;8.43;;
37943;SDS011;23767;42.024;23.086;2023-02-26T04:58:26;21.13;;;7.95;;
37943;SDS011;23767;42.024;23.086;2023-02-26T05:03:23;23.52;;;7.55;;
37943;SDS011;23767;42.024;23.086;2023-02-26T05:05:49;21.75;;;8.43;;
37943;SDS011;23767;42.024;23.086;2023-02-26T05:08:15;18.52;;;7.53;;
37943;SDS011;23767;42.024;23.086;2023-02-26T05:10:41;20.58;;;8.80;;
37943;SDS011;23767;42.024;23.086;2023-02-26T05:13:07;21.67;;;8.30;;
37943;SDS011;23767;42.024;23.086;2023-02-26T05:15:33;20.67;;;7.45;;
37943;SDS011;23767;42.024;23.086;2023-02-26T05:17:59;22.10;;;8.20;;
37943;SDS011;23767;42.024;23.086;2023-02-26T05:20:25;19.38;;;8.38;;
37943;SDS011;23767;42.024;23.086;2023-02-26T05:22:51;20.90;;;7.82;;
37943;SDS011;23767;42.024;23.086;2023-02-26T05:25:17;19.10;;;8.45;;
37943;SDS011;23767;42.024;23.086;2023-02-26T05:27:44;16.67;;;8.10;;
37943;SDS011;23767;42.024;23.086;2023-02-26T05:30:10;20.25;;;7.47;;
37943;SDS011;23767;42.024;23.086;2023-02-26T05:32:38;21.63;;;8.32;;
37943;SDS011;23767;42.024;23.086;2023-02-26T05:35:04;16.83;;;7.47;;
37943;SDS011;23767;42.024;23.086;2023-02-26T05:37:30;19.50;;;7.93;;
37943;SDS011;23767;42.024;23.086;2023-02-26T05:39:56;18.80;;;7.20;;
37943;SDS011;23767;42.024;23.086;2023-02-26T05:42:22;19.40;;;7.28;;
37943;SDS011;23767;42.024;23.086;2023-02-26T05:44:49;20.13;;;8.00;;
37943;SDS011;23767;42.024;23.086;2023-02-26T05:47:15;24.67;;;8.05;;
37943;SDS011;23767;42.024;23.086;2023-02-26T05:49:41;20.60;;;7.10;;
37943;SDS011;23767;42.024;23.086;2023-02-26T05:52:07;21.98;;;6.90;;
37943;SDS011;23767;42.024;23.086;2023-02-26T05:54:33;24.92;;;7.35;;
37943;SDS011;23767;42.024;23.086;2023-02-26T05:56:59;19.77;;;6.90;;
37943;SDS011;23767;42.024;23.086;2023-02-26T05:59:25;23.58;;;7.53;;
37943;SDS011;23767;42.024;23.086;2023-02-26T06:01:51;16.73;;;6.25;;
37943;SDS011;23767;42.024;23.086;2023-02-26T06:04:17;23.50;;;7.40;;
37943;SDS011;23767;42.024;23.086;2023-02-26T06:06:43;22.33;;;7.28;;
37943;SDS011;23767;42.024;23.086;2023-02-26T06:09:09;29.70;;;7.28;;
37943;SDS011;23767;42.024;23.086;2023-02-26T06:11:35;26.67;;;7.30;;
37943;SDS011;23767;42.024;23.086;2023-02-26T06:14:03;21.08;;;6.82;;
37943;SDS011;23767;42.024;23.086;2023-02-26T06:16:29;21.00;;;6.72;;
37943;SDS011;23767;42.024;23.086;2023-02-26T06:18:56;20.52;;;7.05;;
37943;SDS011;23767;42.024;23.086;2023-02-26T06:21:22;19.27;;;7.15;;
37943;SDS011;23767;42.024;23.086;2023-02-26T06:23:48;23.77;;;7.90;;
37943;SDS011;23767;42.024;23.086;2023-02-26T06:26:14;19.63;;;6.57;;
37943;SDS011;23767;42.024;23.086;2023-02-26T06:28:40;21.13;;;8.20;;
37943;SDS011;23767;42.024;23.086;2023-02-26T06:31:06;24.58;;;6.78;;
37943;SDS011;23767;42.024;23.086;2023-02-26T06:33:32;30.63;;;7.93;;
37943;SDS011;23767;42.024;23.086;2023-02-26T06:35:58;28.10;;;6.97;;
37943;SDS011;23767;42.024;23.086;2023-02-26T06:38:25;27.98;;;6.57;;
37943;SDS011;23767;42.024;23.086;2023-02-26T06:40:51;25.08;;;6.60;;
37943;SDS011;23767;42.024;23.086;2023-02-26T06:43:17;19.50;;;5.97;;
37943;SDS011;23767;42.024;23.086;2023-02-26T06:45:43;31.27;;;7.15;;
37943;SDS011;23767;42.024;23.086;2023-02-26T06:48:10;32.10;;;7.63;;
37943;SDS011;23767;42.024;23.086;2023-02-26T06:50:36;34.08;;;7.45;;
37943;SDS011;23767;42.024;23.086;2023-02-26T06:53:02;37.33;;;7.80;;
37943;SDS011;23767;42.024;23.086;2023-02-26T06:55:28;28.52;;;7.50;;
37943;SDS011;23767;42.024;23.086;2023-02-26T06:57:55;41.80;;;7.50;;
37943;SDS011;23767;42.024;23.086;2023-02-26T07:00:21;27.88;;;7.32;;
37943;SDS011;23767;42.024;23.086;2023-02-26T07:02:48;27.70;;;7.40;;
37943;SDS011;23767;42.024;23.086;2023-02-26T07:05:14;23.80;;;6.63;;
37943;SDS011;23767;42.024;23.086;2023-02-26T07:07:40;25.92;;;7.57;;
37943;SDS011;23767;42.024;23.086;2023-02-26T07:10:07;24.95;;;6.78;;
37943;SDS011;23767;42.024;23.086;2023-02-26T07:12:33;26.05;;;8.15;;
37943;SDS011;23767;42.024;23.086;2023-02-26T07:14:59;28.02;;;8.00;;
37943;SDS011;23767;42.024;23.086;2023-02-26T07:17:25;22.90;;;7.20;;
37943;SDS011;23767;42.024;23.086;2023-02-26T07:19:51;28.52;;;7.15;;
37943;SDS011;23767;42.024;23.086;2023-02-26T07:22:18;28.15;;;7.15;;
37943;SDS011;23767;42.024;23.086;2023-02-26T07:24:44;22.58;;;7.22;;
37943;SDS011;23767;42.024;23.086;2023-02-26T07:27:10;26.00;;;7.10;;
37943;SDS011;23767;42.024;23.086;2023-02-26T07:29:37;25.67;;;7.47;;
37943;SDS011;23767;42.024;23.086;2023-02-26T07:32:04;22.10;;;7.43;;
37943;SDS011;23767;42.024;23.086;2023-02-26T07:34:30;27.52;;;7.57;;
37943;SDS011;23767;42.024;23.086;2023-02-26T07:36:56;21.73;;;6.95;;
37943;SDS011;23767;42.024;23.086;2023-02-26T07:39:23;20.67;;;6.63;;
37943;SDS011;23767;42.024;23.086;2023-02-26T07:41:49;20.00;;;7.35;;
37943;SDS011;23767;42.024;23.086;2023-02-26T07:44:15;22.70;;;6.80;;
37943;SDS011;23767;42.024;23.086;2023-02-26T07:46:41;25.83;;;6.78;;
37943;SDS011;23767;42.024;23.086;2023-02-26T07:49:07;27.52;;;7.03;;
37943;SDS011;23767;42.024;23.086;2023-02-26T07:51:34;23.83;;;6.72;;
37943;SDS011;23767;42.024;23.086;2023-02-26T07:54:00;26.90;;;6.97;;
37943;SDS011;23767;42.024;23.086;2023-02-26T07:56:27;25.48;;;6.63;;
37943;SDS011;23767;42.024;23.086;2023-02-26T07:58:53;32.40;;;7.65;;
37943;SDS011;23767;42.024;23.086;2023-02-26T08:01:19;24.45;;;7.47;;
37943;SDS011;23767;42.024;23.086;2023-02-26T08:03:45;22.15;;;6.05;;
37943;SDS011;23767;42.024;23.086;2023-02-26T08:06:11;20.88;;;6.90;;
37943;SDS011;23767;42.024;23.086;2023-02-26T08:08:38;19.90;;;6.13;;
37943;SDS011;23767;42.024;23.086;2023-02-26T08:11:04;26.77;;;6.78;;
37943;SDS011;23767;42.024;23.086;2023-02-26T08:13:30;28.08;;;7.55;;
37943;SDS011;23767;42.024;23.086;2023-02-26T08:15:56;32.63;;;6.82;;
37943;SDS011;23767;42.024;23.086;2023-02-26T08:18:22;27.83;;;7.05;;
37943;SDS011;23767;42.024;23.086;2023-02-26T08:20:49;21.27;;;6.78;;
37943;SDS011;23767;42.024;23.086;2023-02-26T08:23:16;23.63;;;7.65;;
37943;SDS011;23767;42.024;23.086;2023-02-26T08:25:42;27.13;;;7.25;;
37943;SDS011;23767;42.024;23.086;2023-02-26T08:28:09;23.98;;;7.20;;
37943;SDS011;23767;42.024;23.086;2023-02-26T08:30:35;24.27;;;6.93;;
37943;SDS011;23767;42.024;23.086;2023-02-26T08:33:02;23.23;;;7.25;;
37943;SDS011;23767;42.024;23.086;2023-02-26T08:35:28;30.23;;;6.78;;
37943;SDS011;23767;42.024;23.086;2023-02-26T08:37:54;23.83;;;7.22;;
37943;SDS011;23767;42.024;23.086;2023-02-26T08:40:20;18.83;;;6.00;;
37943;SDS011;23767;42.024;23.086;2023-02-26T08:42:46;20.98;;;6.38;;
37943;SDS011;23767;42.024;23.086;2023-02-26T08:45:12;35.88;;;7.03;;
37943;SDS011;23767;42.024;23.086;2023-02-26T08:47:38;21.48;;;6.45;;
37943;SDS011;23767;42.024;23.086;2023-02-26T08:50:09;18.95;;;7.57;;
37943;SDS011;23767;42.024;23.086;2023-02-26T08:52:36;17.42;;;6.53;;
37943;SDS011;23767;42.024;23.086;2023-02-26T08:55:03;27.33;;;7.60;;
37943;SDS011;23767;42.024;23.086;2023-02-26T08:57:29;23.60;;;6.60;;
37943;SDS011;23767;42.024;23.086;2023-02-26T08:59:55;25.33;;;7.10;;
37943;SDS011;23767;42.024;23.086;2023-02-26T09:02:21;22.00;;;7.05;;
37943;SDS011;23767;42.024;23.086;2023-02-26T09:04:47;21.20;;;7.13;;
37943;SDS011;23767;42.024;23.086;2023-02-26T09:07:13;22.83;;;6.95;;
37943;SDS011;23767;42.024;23.086;2023-02-26T09:09:39;39.42;;;7.47;;
37943;SDS011;23767;42.024;23.086;2023-02-26T09:12:05;19.23;;;5.93;;
37943;SDS011;23767;42.024;23.086;2023-02-26T09:14:31;27.67;;;6.63;;
37943;SDS011;23767;42.024;23.086;2023-02-26T09:16:57;24.02;;;6.10;;
37943;SDS011;23767;42.024;23.086;2023-02-26T09:19:23;26.08;;;6.95;;
37943;SDS011;23767;42.024;23.086;2023-02-26T09:21:49;21.70;;;6.15;;
37943;SDS011;23767;42.024;23.086;2023-02-26T09:24:15;25.75;;;5.85;;
37943;SDS011;23767;42.024;23.086;2023-02-26T09:26:41;26.90;;;6.90;;
37943;SDS011;23767;42.024;23.086;2023-02-26T09:29:07;26.73;;;6.70;;
37943;SDS011;23767;42.024;23.086;2023-02-26T09:31:35;23.02;;;7.05;;
37943;SDS011;23767;42.024;23.086;2023-02-26T09:34:01;20.92;;;6.25;;
37943;SDS011;23767;42.024;23.086;2023-02-26T09:36:27;23.17;;;6.65;;
37943;SDS011;23767;42.024;23.086;2023-02-26T09:38:55;28.58;;;7.28;;
37943;SDS011;23767;42.024;23.086;2023-02-26T09:41:23;26.20;;;6.57;;
37943;SDS011;23767;42.024;23.086;2023-02-26T09:49:00;28.17;;;6.40;;
37943;SDS011;23767;42.024;23.086;2023-02-26T09:51:28;24.45;;;6.75;;
37943;SDS011;23767;42.024;23.086;2023-02-26T09:53:55;31.67;;;6.57;;
37943;SDS011;23767;42.024;23.086;2023-02-26T09:56:25;15.75;;;5.78;;
37943;SDS011;23767;42.024;23.086;2023-02-26T09:58:51;17.60;;;6.80;;
37943;SDS011;23767;42.024;23.086;2023-02-26T10:07:00;23.35;;;6.43;;
37943;SDS011;23767;42.024;23.086;2023-02-26T10:12:03;25.30;;;6.82;;
37943;SDS011;23767;42.024;23.086;2023-02-26T10:19:44;24.67;;;7.25;;
37943;SDS011;23767;42.024;23.086;2023-02-26T10:22:17;28.15;;;6.75;;
37943;SDS011;23767;42.024;23.086;2023-02-26T10:24:50;23.95;;;6.10;;
37943;SDS011;23767;42.024;23.086;2023-02-26T10:27:19;30.40;;;7.90;;
37943;SDS011;23767;42.024;23.086;2023-02-26T10:30:02;27.08;;;7.30;;
37943;SDS011;23767;42.024;23.086;2023-02-26T10:32:44;28.10;;;8.82;;
37943;SDS011;23767;42.024;23.086;2023-02-26T10:35:14;22.58;;;6.93;;
37943;SDS011;23767;42.024;23.086;2023-02-26T10:37:52;26.58;;;7.10;;
37943;SDS011;23767;42.024;23.086;2023-02-26T10:42:48;28.50;;;7.07;;
37943;SDS011;23767;42.024;23.086;2023-02-26T10:45:27;24.92;;;7.30;;
37943;SDS011;23767;42.024;23.086;2023-02-26T10:50:47;19.55;;;6.28;;
37943;SDS011;23767;42.024;23.086;2023-02-26T10:53:13;22.98;;;6.82;;
37943;SDS011;23767;42.024;23.086;2023-02-26T10:58:10;20.38;;;6.47;;
37943;SDS011;23767;42.024;23.086;2023-02-26T11:00:38;26.60;;;6.53;;
37943;SDS011;23767;42.024;23.086;2023-02-26T11:03:04;27.00;;;7.00;;
37943;SDS011;23767;42.024;23.086;2023-02-26T11:05:32;26.50;;;6.95;;
37943;SDS011;23767;42.024;23.086;2023-02-26T11:08:01;22.15;;;6.30;;
37943;SDS011;23767;42.024;23.086;2023-02-26T11:10:32;30.15;;;6.95;;
37943;SDS011;23767;42.024;23.086;2023-02-26T11:13:02;17.95;;;5.72;;
37943;SDS011;23767;42.024;23.086;2023-02-26T11:15:28;25.15;;;6.50;;
37943;SDS011;23767;42.024;23.086;2023-02-26T11:17:56;26.75;;;6.20;;
37943;SDS011;23767;42.024;23.086;2023-02-26T11:20:30;21.42;;;6.25;;
37943;SDS011;23767;42.024;23.086;2023-02-26T11:22:58;24.02;;;6.80;;
37943;SDS011;23767;42.024;23.086;2023-02-26T11:25:26;25.10;;;6.57;;
37943;SDS011;23767;42.024;23.086;2023-02-26T11:27:58;19.40;;;6.25;;
37943;SDS011;23767;42.024;23.086;2023-02-26T11:30:25;26.88;;;6.20;;
37943;SDS011;23767;42.024;23.086;2023-02-26T11:32:52;31.75;;;7.40;;
37943;SDS011;23767;42.024;23.086;2023-02-26T11:35:22;27.33;;;6.60;;
37943;SDS011;23767;42.024;23.086;2023-02-26T11:37:54;22.92;;;6.20;;
37943;SDS011;23767;42.024;23.086;2023-02-26T11:40:27;26.55;;;6.90;;
37943;SDS011;23767;42.024;23.086;2023-02-26T11:42:57;25.08;;;6.28;;
37943;SDS011;23767;42.024;23.086;2023-02-26T11:45:24;24.55;;;6.60;;
37943;SDS011;23767;42.024;23.086;2023-02-26T11:47:55;25.30;;;6.22;;
37943;SDS011;23767;42.024;23.086;2023-02-26T11:50:22;30.83;;;6.93;;
37943;SDS011;23767;42.024;23.086;2023-02-26T11:52:56;28.75;;;6.68;;
37943;SDS011;23767;42.024;23.086;2023-02-26T11:55:31;24.63;;;5.80;;
37943;SDS011;23767;42.024;23.086;2023-02-26T11:57:57;29.45;;;7.35;;
37943;SDS011;23767;42.024;23.086;2023-02-26T12:00:31;29.13;;;5.93;;
37943;SDS011;23767;42.024;23.086;2023-02-26T12:03:01;30.35;;;6.72;;
37943;SDS011;23767;42.024;23.086;2023-02-26T12:05:32;24.95;;;6.18;;
37943;SDS011;23767;42.024;23.086;2023-02-26T12:07:58;27.27;;;6.57;;
37943;SDS011;23767;42.024;23.086;2023-02-26T12:10:36;21.02;;;6.32;;
37943;SDS011;23767;42.024;23.086;2023-02-26T12:13:06;28.70;;;5.95;;
37943;SDS011;23767;42.024;23.086;2023-02-26T12:15:36;25.98;;;6.60;;
37943;SDS011;23767;42.024;23.086;2023-02-26T12:20:55;20.75;;;5.70;;
37943;SDS011;23767;42.024;23.086;2023-02-26T12:23:47;35.95;;;6.65;;
37943;SDS011;23767;42.024;23.086;2023-02-26T12:26:29;25.25;;;6.35;;
37943;SDS011;23767;42.024;23.086;2023-02-26T12:41:55;19.45;;;5.13;;
37943;SDS011;23767;42.024;23.086;2023-02-26T12:44:26;21.45;;;5.63;;
37943;SDS011;23767;42.024;23.086;2023-02-26T12:47:16;20.10;;;5.30;;
37943;SDS011;23767;42.024;23.086;2023-02-26T13:10:02;20.30;;;4.97;;
37943;SDS011;23767;42.024;23.086;2023-02-26T13:20:12;16.23;;;5.20;;
37943;SDS011;23767;42.024;23.086;2023-02-26T13:22:43;19.27;;;5.30;;
37943;SDS011;23767;42.024;23.086;2023-02-26T13:27:56;21.35;;;5.47;;
37943;SDS011;23767;42.024;23.086;2023-02-26T13:32:50;22.25;;;5.88;;
37943;SDS011;23767;42.024;23.086;2023-02-26T13:35:19;17.48;;;5.30;;
37943;SDS011;23767;42.024;23.086;2023-02-26T13:37:49;19.98;;;4.85;;
37943;SDS011;23767;42.024;23.086;2023-02-26T13:48:16;22.67;;;5.32;;
37943;SDS011;23767;42.024;23.086;2023-02-26T13:51:06;15.48;;;5.75;;
37943;SDS011;23767;42.024;23.086;2023-02-26T13:56:07;18.10;;;4.93;;
37943;SDS011;23767;42.024;23.086;2023-02-26T13:58:38;16.63;;;4.25;;
37943;SDS011;23767;42.024;23.086;2023-02-26T14:01:09;21.60;;;5.10;;
37943;SDS011;23767;42.024;23.086;2023-02-26T14:08:48;30.77;;;5.72;;
37943;SDS011;23767;42.024;23.086;2023-02-26T14:14:05;16.33;;;4.80;;
37943;SDS011;23767;42.024;23.086;2023-02-26T14:16:33;18.48;;;5.40;;
37943;SDS011;23767;42.024;23.086;2023-02-26T14:19:03;18.80;;;4.53;;
37943;SDS011;23767;42.024;23.086;2023-02-26T14:26:44;18.33;;;4.82;;
37943;SDS011;23767;42.024;23.086;2023-02-26T14:29:20;19.10;;;5.03;;
37943;SDS011;23767;42.024;23.086;2023-02-26T14:31:54;18.42;;;4.60;;
37943;SDS011;23767;42.024;23.086;2023-02-26T14:34:24;13.88;;;5.15;;
37943;SDS011;23767;42.024;23.086;2023-02-26T14:36:52;26.35;;;4.70;;
37943;SDS011;23767;42.024;23.086;2023-02-26T14:39:23;20.65;;;5.43;;
37943;SDS011;23767;42.024;23.086;2023-02-26T14:41:52;23.85;;;5.35;;
37943;SDS011;23767;42.024;23.086;2023-02-26T14:44:21;24.05;;;5.53;;
37943;SDS011;23767;42.024;23.086;2023-02-26T14:46:49;21.75;;;4.90;;
37943;SDS011;23767;42.024;23.086;2023-02-26T14:49:26;18.25;;;4.72;;
37943;SDS011;23767;42.024;23.086;2023-02-26T14:59:43;19.02;;;4.93;;
37943;SDS011;23767;42.024;23.086;2023-02-26T15:09:56;14.85;;;4.40;;
37943;SDS011;23767;42.024;23.086;2023-02-26T15:15:12;17.05;;;4.82;;
37943;SDS011;23767;42.024;23.086;2023-02-26T15:23:50;13.05;;;4.20;;
37943;SDS011;23767;42.024;23.086;2023-02-26T15:25:45;15.50;;;4.80;;
37943;SDS011;23767;42.024;23.086;2023-02-26T15:28:13;18.50;;;5.60;;
37943;SDS011;23767;42.024;23.086;2023-02-26T15:30:41;16.23;;;5.40;;
37943;SDS011;23767;42.024;23.086;2023-02-26T15:33:11;14.27;;;5.45;;
37943;SDS011;23767;42.024;23.086;2023-02-26T15:35:40;17.23;;;6.28;;
37943;SDS011;23767;42.024;23.086;2023-02-26T15:38:07;23.98;;;5.13;;
37943;SDS011;23767;42.024;23.086;2023-02-26T15:40:34;19.02;;;4.07;;
37943;SDS011;23767;42.024;23.086;2023-02-26T15:43:01;15.65;;;4.50;;
37943;SDS011;23767;42.024;23.086;2023-02-26T15:45:39;16.00;;;4.70;;
37943;SDS011;23767;42.024;23.086;2023-02-26T15:48:11;15.25;;;4.50;;
37943;SDS011;23767;42.024;23.086;2023-02-26T15:50:40;17.23;;;5.13;;
37943;SDS011;23767;42.024;23.086;2023-02-26T15:53:07;11.90;;;5.05;;
37943;SDS011;23767;42.024;23.086;2023-02-26T15:55:35;15.95;;;4.63;;
37943;SDS011;23767;42.024;23.086;2023-02-26T15:58:01;14.50;;;4.55;;
37943;SDS011;23767;42.024;23.086;2023-02-26T16:00:28;15.40;;;4.32;;
37943;SDS011;23767;42.024;23.086;2023-02-26T16:02:56;12.32;;;4.30;;
37943;SDS011;23767;42.024;23.086;2023-02-26T16:05:24;11.50;;;4.93;;
37943;SDS011;23767;42.024;23.086;2023-02-26T16:07:50;16.40;;;4.63;;
37943;SDS011;23767;42.024;23.086;2023-02-26T16:11:01;15.20;;;4.50;;
37943;SDS011;23767;42.024;23.086;2023-02-26T16:13:02;18.95;;;4.88;;
37943;SDS011;23767;42.024;23.086;2023-02-26T16:15:38;15.75;;;5.88;;
37943;SDS011;23767;42.024;23.086;2023-02-26T16:18:05;20.40;;;4.97;;
37943;SDS011;23767;42.024;23.086;2023-02-26T16:20:43;16.23;;;5.10;;
37943;SDS011;23767;42.024;23.086;2023-02-26T16:23:20;20.58;;;5.28;;
37943;SDS011;23767;42.024;23.086;2023-02-26T16:28:24;17.75;;;5.03;;
37943;SDS011;23767;42.024;23.086;2023-02-26T16:30:52;18.52;;;4.93;;
37943;SDS011;23767;42.024;23.086;2023-02-26T16:33:20;13.07;;;4.47;;
37943;SDS011;23767;42.024;23.086;2023-02-26T16:35:47;13.45;;;4.80;;
37943;SDS011;23767;42.024;23.086;2023-02-26T16:38:22;16.90;;;4.40;;
37943;SDS011;23767;42.024;23.086;2023-02-26T16:40:54;14.40;;;4.35;;
37943;SDS011;23767;42.024;23.086;2023-02-26T16:45:50;16.30;;;4.78;;
37943;SDS011;23767;42.024;23.086;2023-02-26T16:48:26;17.90;;;4.60;;
37943;SDS011;23767;42.024;23.086;2023-02-26T16:51:06;12.18;;;4.20;;
37943;SDS011;23767;42.024;23.086;2023-02-26T16:53:36;15.80;;;5.22;;
37943;SDS011;23767;42.024;23.086;2023-02-26T16:56:08;16.98;;;4.65;;
37943;SDS011;23767;42.024;23.086;2023-02-26T16:58:34;17.45;;;4.85;;
37943;SDS011;23767;42.024;23.086;2023-02-26T17:01:07;11.27;;;4.18;;
37943;SDS011;23767;42.024;23.086;2023-02-26T17:03:34;16.70;;;5.03;;
37943;SDS011;23767;42.024;23.086;2023-02-26T17:06:07;13.85;;;4.53;;
37943;SDS011;23767;42.024;23.086;2023-02-26T17:08:45;14.20;;;4.65;;
37943;SDS011;23767;42.024;23.086;2023-02-26T17:16:36;13.77;;;4.18;;
37943;SDS011;23767;42.024;23.086;2023-02-26T17:19:02;14.27;;;5.10;;
37943;SDS011;23767;42.024;23.086;2023-02-26T17:21:28;15.52;;;4.80;;
37943;SDS011;23767;42.024;23.086;2023-02-26T17:23:55;18.30;;;5.57;;
37943;SDS011;23767;42.024;23.086;2023-02-26T17:26:21;16.52;;;5.05;;
37943;SDS011;23767;42.024;23.086;2023-02-26T17:28:47;20.50;;;6.00;;
37943;SDS011;23767;42.024;23.086;2023-02-26T17:31:13;13.05;;;5.07;;
37943;SDS011;23767;42.024;23.086;2023-02-26T17:33:40;18.60;;;6.63;;
37943;SDS011;23767;42.024;23.086;2023-02-26T17:36:09;13.15;;;4.72;;
37943;SDS011;23767;42.024;23.086;2023-02-26T17:38:38;13.48;;;5.13;;
37943;SDS011;23767;42.024;23.086;2023-02-26T17:41:06;18.73;;;5.50;;
37943;SDS011;23767;42.024;23.086;2023-02-26T17:43:33;15.20;;;4.75;;
37943;SDS011;23767;42.024;23.086;2023-02-26T17:45:59;12.15;;;4.63;;
37943;SDS011;23767;42.024;23.086;2023-02-26T17:48:25;12.75;;;4.97;;